Grand View, Tennessee
Current Conditions -  °F | °C
As of 6:53 PM on Friday 24 Oct 2014 (Local Time) from KCSV Reporting Station
Clear Clear  
Wind Chill: 61°   Ceiling: Unl
Heat Index: 61°   Visibility: 10mi
Dew Point: 36°   Wind: 6mph
Humidity: 39%   Direction: 320°NW
Pressure: 30.07"   Gusts: NA
Location:  35.7648°N, 84.863°W
Report Text: KCSV 242253Z AUTO 32005KT 10SM CLR 16/02 A3007 RMK AO2 SLP179 T01610022
Loading
Personal Weather Stations






























Interactive Weather Map
Tropical Storm Tracking
New forecast layout! Learn more

10-Day Weather Forecast

Advertisements
Track Severe Weather on mobile